createdAt,value
2019-04-06T00:02:36.013Z,59.76
2019-04-06T00:05:08.714Z,59.93
2019-04-06T00:07:40.176Z,60.09
2019-04-06T00:10:12.246Z,60.47
2019-04-06T00:12:43.793Z,60.54
2019-04-06T00:15:15.727Z,60.54
2019-04-06T00:17:47.507Z,60.62
2019-04-06T00:20:18.977Z,60.98
2019-04-06T00:22:50.544Z,61.38
2019-04-06T00:25:22.042Z,61.31
2019-04-06T00:27:53.602Z,61.25
2019-04-06T00:30:25.150Z,61.49
2019-04-06T00:33:03.384Z,61.77
2019-04-06T00:35:34.955Z,61.80
2019-04-06T00:38:06.457Z,62.15
2019-04-06T00:40:38.059Z,62.43
2019-04-06T00:43:09.553Z,62.83
2019-04-06T00:45:41.020Z,62.88
2019-04-06T00:48:12.434Z,63.24
2019-04-06T00:50:43.655Z,63.43
2019-04-06T00:53:14.927Z,63.61
2019-04-06T00:55:55.150Z,63.67
2019-04-06T00:58:19.392Z,64.06
2019-04-06T01:00:51.990Z,64.24
2019-04-06T01:03:23.661Z,64.30
2019-04-06T01:05:55.330Z,64.39
2019-04-06T01:08:26.888Z,64.54
2019-04-06T01:10:58.537Z,64.89
2019-04-06T01:13:30.249Z,64.75
2019-04-06T01:16:02.252Z,64.91
2019-04-06T01:18:33.926Z,64.57
2019-04-06T01:21:05.565Z,64.52
2019-04-06T01:23:37.397Z,64.55
2019-04-06T01:26:08.921Z,64.75
2019-04-06T01:28:40.741Z,64.87
2019-04-06T01:31:12.424Z,64.93
2019-04-06T01:33:44.366Z,65.18
2019-04-06T01:36:16.148Z,65.26
2019-04-06T01:38:47.989Z,65.22
2019-04-06T01:41:19.740Z,65.09
2019-04-06T01:43:51.197Z,65.52
2019-04-06T01:46:22.831Z,65.65
2019-04-06T01:48:54.445Z,65.85
2019-04-06T01:51:26.063Z,66.03
2019-04-06T01:53:57.501Z,65.93
2019-04-06T01:56:29.950Z,65.93
2019-04-06T01:59:01.677Z,66.24
2019-04-06T02:01:37.414Z,66.32
2019-04-06T02:04:08.850Z,66.09
2019-04-06T02:06:40.595Z,66.31
2019-04-06T02:09:12.402Z,66.17
2019-04-06T02:11:44.062Z,66.03
2019-04-06T02:14:15.568Z,65.75
2019-04-06T02:16:47.175Z,65.90
2019-04-06T02:19:18.825Z,65.51
2019-04-06T02:21:50.332Z,65.62
2019-04-06T02:24:23.190Z,65.78
2019-04-06T02:26:54.856Z,65.87
2019-04-06T02:29:26.216Z,66.06
2019-04-06T02:32:15.328Z,66.14
2019-04-06T02:35:12.707Z,66.31
2019-04-06T02:38:00.635Z,66.70
2019-04-06T02:40:49.380Z,67.50
2019-04-06T02:43:29.342Z,67.85
2019-04-06T02:46:01.922Z,67.75
2019-04-06T02:48:33.731Z,68.02
2019-04-06T02:51:06.399Z,68.49
2019-04-06T02:53:38.220Z,68.26
2019-04-06T02:56:10.026Z,68.75
2019-04-06T02:58:41.641Z,69.02
2019-04-06T03:01:13.309Z,69.21
2019-04-06T03:03:44.912Z,69.22
2019-04-06T03:06:16.473Z,69.41
2019-04-06T03:08:48.483Z,69.30
2019-04-06T03:11:20.424Z,69.39
2019-04-06T03:13:52.250Z,69.71
2019-04-06T03:16:24.051Z,69.24
2019-04-06T03:18:55.555Z,69.34
2019-04-06T03:21:27.073Z,69.50
2019-04-06T03:23:58.338Z,69.46
2019-04-06T03:26:29.593Z,70.11
2019-04-06T03:29:01.325Z,70.65
2019-04-06T03:31:32.854Z,70.95
2019-04-06T03:34:04.326Z,71.25
2019-04-06T03:36:35.905Z,71.06
2019-04-06T03:39:08.496Z,70.99
2019-04-06T03:41:39.771Z,70.75
2019-04-06T03:44:11.367Z,70.48
2019-04-06T03:46:42.902Z,70.60
2019-04-06T03:49:14.520Z,71.20
2019-04-06T03:51:46.357Z,71.61
2019-04-06T03:54:18.132Z,71.81
2019-04-06T03:56:49.601Z,72.00
2019-04-06T03:59:21.308Z,71.93
2019-04-06T04:01:53.169Z,71.57
2019-04-06T04:04:24.547Z,71.80
2019-04-06T04:06:56.315Z,71.78
2019-04-06T04:09:27.671Z,71.89
2019-04-06T04:11:59.208Z,71.87
2019-04-06T04:14:30.530Z,71.92
2019-04-06T04:17:02.222Z,71.63
2019-04-06T04:19:34.225Z,71.74
2019-04-06T04:22:05.864Z,72.01
2019-04-06T04:24:37.552Z,71.77
2019-04-06T04:27:08.801Z,71.47
2019-04-06T04:29:40.328Z,71.07
2019-04-06T04:32:11.774Z,70.95
2019-04-06T04:34:43.169Z,70.62
2019-04-06T04:37:14.432Z,70.28
2019-04-06T04:39:45.830Z,70.37
2019-04-06T04:42:17.584Z,69.97
2019-04-06T04:44:49.046Z,70.01
2019-04-06T04:47:20.548Z,70.84
2019-04-06T04:49:51.997Z,71.20
2019-04-06T04:52:23.643Z,70.93
2019-04-06T04:54:54.962Z,70.66
2019-04-06T04:57:26.564Z,70.46
2019-04-06T04:59:58.108Z,71.43
2019-04-06T05:02:29.499Z,71.59
2019-04-06T05:05:00.836Z,71.81
2019-04-06T05:07:32.240Z,72.65
2019-04-06T05:10:03.684Z,72.81
2019-04-06T05:12:35.193Z,72.80
2019-04-06T05:15:10.160Z,72.85
2019-04-06T05:17:41.693Z,72.69
2019-04-06T05:20:13.614Z,72.56
2019-04-06T05:22:45.212Z,71.67
2019-04-06T05:25:16.668Z,70.82
2019-04-06T05:27:52.722Z,69.76
2019-04-06T05:30:21.162Z,69.50
2019-04-06T05:32:52.635Z,68.90
2019-04-06T05:35:24.153Z,68.48
2019-04-06T05:37:55.816Z,67.55
2019-04-06T05:40:27.237Z,67.44
2019-04-06T05:42:58.458Z,66.61
2019-04-06T05:45:29.740Z,65.96
2019-04-06T05:48:01.305Z,65.38
2019-04-06T05:50:32.658Z,65.50
2019-04-06T05:53:04.054Z,64.95
2019-04-06T05:55:35.530Z,65.33
2019-04-06T05:58:10.074Z,66.38
2019-04-06T06:00:41.241Z,65.57
2019-04-06T06:03:12.614Z,65.40
2019-04-06T06:05:44.237Z,64.95
2019-04-06T06:08:16.014Z,64.81
2019-04-06T06:10:47.438Z,65.11
2019-04-06T06:13:18.724Z,65.75
2019-04-06T06:15:50.076Z,65.79
2019-04-06T06:18:27.465Z,65.57
2019-04-06T06:20:54.982Z,66.54
2019-04-06T06:23:26.800Z,66.63
2019-04-06T06:25:58.471Z,66.29
2019-04-06T06:28:30.008Z,66.55
2019-04-06T06:31:03.923Z,66.24
2019-04-06T06:33:35.602Z,65.64
2019-04-06T06:36:07.539Z,65.65
2019-04-06T06:38:39.273Z,65.40
2019-04-06T06:41:10.856Z,65.51
2019-04-06T06:43:42.448Z,64.57
2019-04-06T06:46:14.159Z,63.65
2019-04-06T06:48:45.638Z,63.41
2019-04-06T06:51:17.339Z,62.87
2019-04-06T06:53:48.969Z,62.43
2019-04-06T06:56:20.566Z,61.13
2019-04-06T06:58:52.332Z,60.93
2019-04-06T07:01:24.144Z,58.78
2019-04-06T07:03:55.553Z,57.77
2019-04-06T07:06:26.976Z,58.28
2019-04-06T07:08:58.178Z,58.02
2019-04-06T07:11:29.652Z,57.56
2019-04-06T07:14:00.966Z,55.94
2019-04-06T07:16:32.336Z,57.08
2019-04-06T07:19:04.099Z,55.96
2019-04-06T07:21:36.065Z,55.91
2019-04-06T07:24:07.494Z,55.30
2019-04-06T07:26:41.180Z,55.07
2019-04-06T07:29:12.825Z,55.07
2019-04-06T07:31:44.159Z,55.12
2019-04-06T07:34:15.409Z,54.79
2019-04-06T07:36:46.707Z,54.56
2019-04-06T07:39:19.253Z,53.64
2019-04-06T07:41:50.753Z,53.93
2019-04-06T07:44:22.358Z,53.49
2019-04-06T07:46:53.729Z,52.56
2019-04-06T07:49:24.787Z,51.98
2019-04-06T07:51:56.199Z,51.04
2019-04-06T07:54:27.370Z,50.47
2019-04-06T07:56:58.757Z,51.29
2019-04-06T07:59:29.956Z,51.21
2019-04-06T08:02:01.526Z,50.84
2019-04-06T08:04:32.620Z,51.46
2019-04-06T08:07:03.838Z,50.38
2019-04-06T08:09:35.117Z,48.74
2019-04-06T08:12:06.499Z,48.20
2019-04-06T08:14:38.675Z,48.40
2019-04-06T08:17:09.845Z,47.10
2019-04-06T08:19:41.150Z,47.75
2019-04-06T08:22:12.342Z,49.40
2019-04-06T08:24:43.570Z,48.59
2019-04-06T08:27:14.911Z,48.77
2019-04-06T08:29:46.008Z,48.97
2019-04-06T08:32:17.605Z,49.10
2019-04-06T08:34:48.849Z,49.03
2019-04-06T08:37:20.104Z,49.45
2019-04-06T08:39:51.413Z,50.04
2019-04-06T08:42:22.651Z,49.84
2019-04-06T08:44:53.665Z,50.18
2019-04-06T08:47:24.749Z,50.05
2019-04-06T08:49:56.005Z,50.05
2019-04-06T08:52:27.197Z,48.44
2019-04-06T08:54:58.519Z,48.48
2019-04-06T08:57:29.926Z,47.84
2019-04-06T09:00:00.876Z,46.97
2019-04-06T09:02:32.289Z,46.23
2019-04-06T09:05:03.484Z,46.79
2019-04-06T09:07:34.772Z,46.59
2019-04-06T09:10:07.171Z,45.91
2019-04-06T09:12:38.421Z,45.66
2019-04-06T09:15:10.234Z,46.11
2019-04-06T09:17:41.723Z,46.55
2019-04-06T09:20:10.752Z,45.49
2019-04-06T09:22:42.284Z,44.25
2019-04-06T09:25:13.557Z,44.40
2019-04-06T09:27:44.874Z,45.02
2019-04-06T09:30:17.142Z,44.14
2019-04-06T09:32:48.462Z,44.33
2019-04-06T09:35:20.197Z,43.75
2019-04-06T09:37:51.291Z,42.52
2019-04-06T09:40:22.442Z,43.02
2019-04-06T09:42:53.959Z,43.02
2019-04-06T09:46:03.598Z,43.67
2019-04-06T09:48:48.081Z,43.97
2019-04-06T09:51:41.444Z,44.85
2019-04-06T09:54:35.724Z,44.89
2019-04-06T09:57:18.551Z,44.49
2019-04-06T10:00:04.200Z,44.14
2019-04-06T10:02:55.034Z,43.96
2019-04-06T10:05:32.783Z,43.54
2019-04-06T10:08:18.506Z,43.74
2019-04-06T10:11:21.270Z,43.14
2019-04-06T10:14:02.271Z,44.64
2019-04-06T10:17:03.787Z,42.50
2019-04-06T10:19:55.308Z,42.89
2019-04-06T10:22:35.950Z,42.28
2019-04-06T10:25:24.549Z,42.00
2019-04-06T10:28:26.671Z,42.33
2019-04-06T10:31:22.902Z,40.56
2019-04-06T10:34:22.072Z,40.90
2019-04-06T10:37:13.828Z,40.90
2019-04-06T10:40:06.771Z,40.18
2019-04-06T10:43:04.725Z,39.40
2019-04-06T10:46:06.916Z,38.67
2019-04-06T10:49:00.262Z,38.67
2019-04-06T10:51:41.330Z,38.23
2019-04-06T10:54:34.095Z,36.81
2019-04-06T10:57:23.052Z,36.81
2019-04-06T11:00:05.724Z,37.23
2019-04-06T11:03:03.335Z,36.16
2019-04-06T11:06:13.192Z,36.09
2019-04-06T11:09:10.025Z,36.79
2019-04-06T11:11:58.733Z,36.18
2019-04-06T11:14:44.426Z,35.88
2019-04-06T11:17:33.223Z,36.22
2019-04-06T11:20:29.787Z,36.16
2019-04-06T11:23:38.210Z,36.04
2019-04-06T11:26:34.316Z,36.04
2019-04-06T11:29:24.297Z,36.77
2019-04-06T11:32:20.329Z,36.66
2019-04-06T11:35:11.659Z,36.31
2019-04-06T11:38:16.839Z,35.00
2019-04-06T11:41:01.203Z,35.11
2019-04-06T11:44:09.522Z,35.13
2019-04-06T11:46:57.084Z,34.42
2019-04-06T11:49:41.471Z,33.67
2019-04-06T11:52:28.124Z,33.83
2019-04-06T11:55:13.570Z,34.73
2019-04-06T11:58:02.196Z,35.92
2019-04-06T12:00:50.627Z,36.47
2019-04-06T12:03:36.269Z,36.47
2019-04-06T12:06:35.413Z,36.67
2019-04-06T12:09:36.198Z,36.67
2019-04-06T12:12:23.951Z,37.59
2019-04-06T12:15:04.113Z,37.50
2019-04-06T12:18:03.642Z,36.65
2019-04-06T12:20:57.217Z,36.03
2019-04-06T12:23:47.074Z,36.27
2019-04-06T12:26:32.504Z,36.20
2019-04-06T12:29:17.465Z,35.84
2019-04-06T12:32:07.558Z,35.84
2019-04-06T12:34:56.523Z,35.44
2019-04-06T12:37:47.045Z,35.71
2019-04-06T12:40:31.543Z,36.17
2019-04-06T12:43:22.537Z,36.17
2019-04-06T12:46:15.693Z,35.72
2019-04-06T12:49:05.798Z,35.72
2019-04-06T12:51:53.068Z,36.10
2019-04-06T12:54:49.237Z,36.07
2019-04-06T12:57:51.615Z,36.20
2019-04-06T13:00:50.865Z,36.20
2019-04-06T13:03:32.712Z,35.72
2019-04-06T13:06:25.826Z,36.08
2019-04-06T13:09:16.018Z,35.63
2019-04-06T13:11:55.390Z,35.63
2019-04-06T13:14:50.035Z,35.23
2019-04-06T13:17:40.592Z,34.81
2019-04-06T13:20:49.551Z,35.05
2019-04-06T13:23:48.841Z,35.26
2019-04-06T13:26:41.775Z,34.09
2019-04-06T13:29:25.718Z,33.96
2019-04-06T13:32:16.013Z,34.20
2019-04-06T13:34:53.029Z,34.37
2019-04-06T13:37:44.819Z,34.98
2019-04-06T13:40:35.108Z,34.23
2019-04-06T13:43:16.642Z,33.96
2019-04-06T13:46:06.852Z,34.14
2019-04-06T13:49:02.821Z,34.18
2019-04-06T13:51:56.077Z,35.06
2019-04-06T13:54:46.531Z,35.73
2019-04-06T13:57:40.095Z,36.31
2019-04-06T14:00:25.331Z,36.63
2019-04-06T14:03:24.695Z,36.73
2019-04-06T14:06:30.072Z,36.09
2019-04-06T14:09:19.855Z,36.22
2019-04-06T14:11:56.810Z,36.08
2019-04-06T14:14:34.291Z,36.04
2019-04-06T14:17:24.731Z,36.47
2019-04-06T14:20:13.371Z,36.92
2019-04-06T14:23:03.336Z,37.45
2019-04-06T14:26:11.605Z,37.60
2019-04-06T14:29:00.527Z,37.85
2019-04-06T14:31:55.300Z,38.38
2019-04-06T14:34:54.837Z,38.93
2019-04-06T14:37:37.351Z,39.25
2019-04-06T14:40:35.013Z,39.25
2019-04-06T14:43:31.238Z,39.26
2019-04-06T14:46:21.440Z,39.61
2019-04-06T14:49:27.489Z,39.34
2019-04-06T14:52:15.430Z,39.36
2019-04-06T14:54:56.906Z,39.60
2019-04-06T14:57:40.891Z,39.97
2019-04-06T15:00:27.382Z,39.77
2019-04-06T15:03:29.733Z,40.21
2019-04-06T15:06:31.587Z,40.41
2019-04-06T15:09:22.131Z,40.21
2019-04-06T15:12:17.862Z,40.49
2019-04-06T15:15:19.826Z,40.42
2019-04-06T15:18:08.252Z,40.92
2019-04-06T15:20:52.320Z,40.49
2019-04-06T15:23:43.134Z,40.82
2019-04-06T15:26:43.053Z,40.82
2019-04-06T15:29:41.124Z,41.07
2019-04-06T15:32:37.218Z,40.71
2019-04-06T15:35:26.006Z,40.24
2019-04-06T15:38:14.804Z,40.24
2019-04-06T15:41:08.517Z,40.88
2019-04-06T15:43:53.461Z,41.37
2019-04-06T15:46:46.883Z,41.37
2019-04-06T15:49:29.329Z,41.28
2019-04-06T15:52:17.797Z,41.77
2019-04-06T15:55:02.884Z,42.15
2019-04-06T15:58:01.872Z,41.67
2019-04-06T16:00:55.004Z,41.82
2019-04-06T16:03:45.102Z,41.69
2019-04-06T16:06:31.569Z,41.93
2019-04-06T16:09:37.534Z,41.93
2019-04-06T16:12:29.284Z,42.23
2019-04-06T16:15:19.526Z,42.54
2019-04-06T16:18:07.240Z,43.36
2019-04-06T16:21:05.768Z,43.36
2019-04-06T16:24:10.113Z,43.14
2019-04-06T16:26:49.737Z,43.80
2019-04-06T16:29:54.823Z,44.08
2019-04-06T16:32:43.962Z,44.29
2019-04-06T16:35:34.447Z,44.15
2019-04-06T16:38:27.905Z,44.58
2019-04-06T16:41:24.048Z,44.97
2019-04-06T16:44:02.762Z,45.38
2019-04-06T16:47:07.550Z,45.80
2019-04-06T16:50:06.599Z,46.01
2019-04-06T16:52:47.124Z,46.50
2019-04-06T16:55:52.344Z,46.67
2019-04-06T16:58:41.095Z,46.81
2019-04-06T17:01:26.538Z,47.15
2019-04-06T17:04:06.920Z,47.37
2019-04-06T17:06:55.652Z,47.51
2019-04-06T17:09:45.774Z,47.55
2019-04-06T17:12:41.883Z,47.55
2019-04-06T17:15:41.489Z,47.57
2019-04-06T17:18:22.816Z,47.87
2019-04-06T17:21:13.030Z,48.21
2019-04-06T17:24:06.005Z,48.25
2019-04-06T17:27:02.061Z,48.73
2019-04-06T17:30:11.181Z,48.82
2019-04-06T17:33:05.613Z,48.92
2019-04-06T17:36:01.808Z,49.00
2019-04-06T17:38:45.318Z,49.27
2019-04-06T17:41:53.569Z,49.32
2019-04-06T17:44:41.688Z,49.50
2019-04-06T17:47:37.744Z,49.86
2019-04-06T17:50:25.007Z,49.97
2019-04-06T17:53:07.195Z,50.29
2019-04-06T17:56:03.486Z,50.51
2019-04-06T17:58:43.366Z,50.74
2019-04-06T18:01:32.176Z,51.00
2019-04-06T18:04:31.131Z,51.15
2019-04-06T18:07:31.128Z,51.38
2019-04-06T18:10:25.445Z,51.71
2019-04-06T18:13:11.339Z,51.88
2019-04-06T18:15:43.057Z,51.87
2019-04-06T18:18:14.208Z,51.99
2019-04-06T18:20:45.206Z,52.18
2019-04-06T18:23:16.506Z,52.37
2019-04-06T18:25:47.598Z,52.35
2019-04-06T18:28:18.720Z,52.39
2019-04-06T18:30:57.193Z,52.55
2019-04-06T18:33:28.495Z,52.61
2019-04-06T18:35:59.987Z,52.70
2019-04-06T18:38:43.269Z,53.01
2019-04-06T18:41:14.865Z,53.19
2019-04-06T18:43:46.236Z,53.28
2019-04-06T18:46:17.306Z,53.04
2019-04-06T18:48:48.640Z,53.40
2019-04-06T18:51:20.637Z,53.25
2019-04-06T18:53:52.942Z,53.22
2019-04-06T18:56:24.410Z,53.31
2019-04-06T18:58:55.537Z,53.22
2019-04-06T19:01:27.035Z,53.57
2019-04-06T19:03:57.981Z,53.41
2019-04-06T19:06:29.440Z,53.61
2019-04-06T19:09:00.791Z,54.06
2019-04-06T19:11:33.710Z,54.13
2019-04-06T19:14:04.919Z,54.29
2019-04-06T19:16:35.809Z,54.09
2019-04-06T19:19:06.782Z,54.24
2019-04-06T19:21:37.778Z,54.30
2019-04-06T19:24:08.875Z,54.68
2019-04-06T19:26:40.105Z,54.87
2019-04-06T19:29:11.177Z,54.70
2019-04-06T19:31:42.494Z,55.14
2019-04-06T19:34:13.903Z,55.31
2019-04-06T19:36:45.387Z,55.29
2019-04-06T19:39:16.959Z,55.75
2019-04-06T19:41:48.316Z,55.67
2019-04-06T19:44:20.629Z,55.60
2019-04-06T19:46:52.869Z,55.69
2019-04-06T19:49:24.139Z,55.67
2019-04-06T19:51:55.557Z,55.53
2019-04-06T19:54:27.923Z,55.65
2019-04-06T19:56:59.206Z,55.95
2019-04-06T19:59:30.672Z,56.24
2019-04-06T20:02:01.774Z,56.52
2019-04-06T20:04:32.878Z,56.31
2019-04-06T20:07:04.208Z,56.43
2019-04-06T20:09:35.585Z,56.84
2019-04-06T20:12:07.783Z,56.91
2019-04-06T20:14:39.422Z,56.66
2019-04-06T20:17:10.989Z,56.77
2019-04-06T20:19:42.222Z,57.24
2019-04-06T20:22:13.800Z,57.02
2019-04-06T20:24:45.576Z,57.41
2019-04-06T20:27:18.591Z,57.18
2019-04-06T20:29:49.773Z,57.18
2019-04-06T20:32:21.306Z,57.21
2019-04-06T20:34:52.471Z,57.19
2019-04-06T20:37:23.833Z,57.18
2019-04-06T20:39:54.855Z,57.15
2019-04-06T20:42:25.805Z,57.25
2019-04-06T20:44:57.181Z,57.59
2019-04-06T20:47:30.512Z,57.74
2019-04-06T20:50:01.801Z,57.55
2019-04-06T20:52:33.077Z,57.37
2019-04-06T20:55:06.349Z,57.97
2019-04-06T20:57:37.583Z,57.97
2019-04-06T21:00:10.156Z,57.86
2019-04-06T21:02:41.729Z,57.86
2019-04-06T21:05:13.753Z,58.04
2019-04-06T21:07:45.102Z,58.29
2019-04-06T21:10:16.469Z,58.29
2019-04-06T21:12:47.802Z,58.30
2019-04-06T21:15:21.167Z,58.67
2019-04-06T21:17:53.306Z,58.62
2019-04-06T21:20:24.664Z,58.91
2019-04-06T21:22:56.300Z,59.05
2019-04-06T21:25:27.627Z,59.31
2019-04-06T21:27:58.851Z,59.34
2019-04-06T21:30:30.021Z,59.25
2019-04-06T21:33:01.745Z,58.99
2019-04-06T21:35:34.534Z,58.99
2019-04-06T21:38:05.601Z,59.13
2019-04-06T21:40:37.358Z,59.37
2019-04-06T21:43:09.061Z,59.43
2019-04-06T21:45:40.951Z,59.70
2019-04-06T21:48:12.510Z,59.74
2019-04-06T21:50:44.166Z,59.81
2019-04-06T21:53:15.536Z,59.71
2019-04-06T21:55:47.165Z,59.81
2019-04-06T21:58:18.735Z,60.12
2019-04-06T22:00:55.686Z,60.08
2019-04-06T22:03:27.147Z,60.28
2019-04-06T22:05:58.285Z,60.07
2019-04-06T22:08:29.797Z,60.17
2019-04-06T22:11:01.729Z,60.05
2019-04-06T22:13:32.880Z,60.25
2019-04-06T22:16:04.453Z,60.46
2019-04-06T22:18:36.230Z,60.44
2019-04-06T22:21:08.101Z,60.30
2019-04-06T22:23:43.326Z,60.58
2019-04-06T22:26:12.566Z,60.60
2019-04-06T22:28:44.315Z,60.54
2019-04-06T22:31:16.463Z,60.46
2019-04-06T22:33:47.446Z,61.00
2019-04-06T22:36:18.948Z,60.86
2019-04-06T22:38:50.393Z,60.54
2019-04-06T22:41:21.895Z,60.24
2019-04-06T22:43:53.132Z,60.76
2019-04-06T22:46:25.174Z,60.84
2019-04-06T22:48:57.495Z,61.52
2019-04-06T22:51:28.880Z,61.47
2019-04-06T22:54:00.344Z,61.51
2019-04-06T22:56:31.710Z,61.58
2019-04-06T22:59:03.171Z,62.30
2019-04-06T23:01:37.349Z,62.32
2019-04-06T23:04:31.089Z,62.53
2019-04-06T23:07:12.195Z,62.92
2019-04-06T23:09:44.024Z,63.30
2019-04-06T23:12:15.565Z,62.98
2019-04-06T23:14:47.700Z,63.00
2019-04-06T23:17:19.622Z,62.81
2019-04-06T23:19:51.149Z,62.73
2019-04-06T23:22:22.680Z,62.88
2019-04-06T23:24:54.745Z,63.01
2019-04-06T23:27:26.400Z,63.08
2019-04-06T23:29:57.665Z,63.25
2019-04-06T23:32:29.597Z,63.30
2019-04-06T23:35:02.648Z,63.53
2019-04-06T23:37:34.250Z,63.32
2019-04-06T23:40:06.621Z,63.57
2019-04-06T23:42:37.960Z,63.78
2019-04-06T23:45:10.291Z,63.58
2019-04-06T23:47:41.713Z,63.78
2019-04-06T23:50:13.443Z,63.79
2019-04-06T23:52:45.145Z,63.66
2019-04-06T23:55:16.792Z,63.60
2019-04-06T23:57:48.401Z,63.80
